Time;durP1;ratioP1;P1;durP2;ratioP2;P2;SDS_P1;SDS_P2;PMS_P1;PMS_P2;Temp;Humidity;BMP_temperature;BMP_pressure;BME280_temperature;BME280_humidity;BME280_pressure;Samples;Min_cycle;Max_cycle;Signal;HPM_P1;HPM_P2
2024/01/10 00:01:53;;;;;;;;;;;;;;;-0.97;46.74;101201.56;4310761;33;34182;-81
2024/01/10 00:04:22;;;;;;;;;;;;;;;-0.96;46.99;101198.25;4316079;33;33746;-81
2024/01/10 00:06:50;;;;;;;;;;;;;;;-1.05;47.41;101195.16;4312030;33;33698;-81
2024/01/10 00:09:18;;;;;;;;;;;;;;;-1.02;47.25;101188.56;4318925;33;34522;-81
2024/01/10 00:11:48;;;;;;;;;;;;;;;-1.21;47.29;101195.94;4326494;33;32775;-81
2024/01/10 00:14:16;;;;;;;;;;;;;;;-1.04;47.04;101196.91;4325968;33;34282;-81
2024/01/10 00:16:44;;;;;;;;;;;;;;;-1.17;47.43;101197.88;4331291;33;33943;-81
2024/01/10 00:19:15;;;;;;;;;;;;;;;-1.31;47.54;101202.16;4320411;33;34076;-82
2024/01/10 00:21:45;;;;;;;;;;;;;;;-1.04;46.87;101204.56;4313858;33;32899;-81
2024/01/10 00:24:14;;;;;;;;;;;;;;;-1.17;47.16;101211.50;4319486;33;33537;-84
2024/01/10 00:26:41;;;;;;;;;;;;;;;-1.24;47.27;101206.81;4323867;33;33818;-81
2024/01/10 00:29:10;;;;;;;;;;;;;;;-1.27;47.26;101211.75;4326370;33;34481;-81
2024/01/10 00:31:38;;;;;;;;;;;;;;;-1.41;47.44;101207.50;4325596;33;33108;-82
2024/01/10 00:34:07;;;;;;;;;;;;;;;-1.32;47.30;101206.37;4325900;33;34064;-80
2024/01/10 00:36:37;;;;;;;;;;;;;;;-1.30;47.42;101198.84;4325013;33;32509;-82
2024/01/10 00:39:06;;;;;;;;;;;;;;;-1.29;47.08;101204.00;4322677;33;33547;-81
2024/01/10 00:41:34;;;;;;;;;;;;;;;-1.23;47.00;101206.06;4321673;33;33927;-81
2024/01/10 00:44:03;;;;;;;;;;;;;;;-1.44;47.75;101208.19;4316999;33;34017;-81
2024/01/10 00:46:31;;;;;;;;;;;;;;;-1.16;47.02;101212.34;4310724;33;34625;-82
2024/01/10 00:49:00;;;;;;;;;;;;;;;-1.78;48.53;101211.25;4319862;33;34230;-82
2024/01/10 00:51:29;;;;;;;;;;;;;;;-1.41;47.63;101207.50;4325648;33;33610;-81
2024/01/10 00:54:01;;;;;;;;;;;;;;;-1.41;47.75;101207.50;4319101;33;33653;-83
2024/01/10 00:56:31;;;;;;;;;;;;;;;-1.49;48.12;101208.72;4317819;33;33330;-83
2024/01/10 00:59:04;;;;;;;;;;;;;;;-1.47;48.25;101210.56;4330738;33;33645;-83
2024/01/10 01:01:34;;;;;;;;;;;;;;;-1.73;49.05;101209.87;4326850;33;33723;-81
2024/01/10 01:04:04;;;;;;;;;;;;;;;-1.70;48.96;101209.19;4325373;33;33038;-81
2024/01/10 01:06:34;;;;;;;;;;;;;;;-1.73;49.30;101209.87;4325383;33;34367;-83
2024/01/10 01:09:06;;;;;;;;;;;;;;;-1.58;49.22;101215.00;4323064;33;34069;-83
2024/01/10 01:11:36;;;;;;;;;;;;;;;-1.46;49.21;101208.91;4318764;33;33539;-80
2024/01/10 01:14:08;;;;;;;;;;;;;;;-1.54;49.55;101209.31;4325066;33;32765;-83
2024/01/10 01:16:38;;;;;;;;;;;;;;;-1.60;49.83;101215.69;4325355;33;34275;-81
2024/01/10 01:19:08;;;;;;;;;;;;;;;-1.49;49.84;101214.69;4325115;33;35218;-82
2024/01/10 01:21:41;;;;;;;;;;;;;;;-1.69;50.37;101220.22;4330746;33;34056;-82
2024/01/10 01:24:18;;;;;;;;;;;;;;;-1.59;50.68;101212.38;4330389;33;34343;-82
2024/01/10 01:26:47;;;;;;;;;;;;;;;-1.58;50.51;101215.00;4325947;33;34307;-80
2024/01/10 01:29:15;;;;;;;;;;;;;;;-1.82;50.77;101213.53;4317479;33;33948;-83
2024/01/10 01:31:44;;;;;;;;;;;;;;;-1.74;50.37;101218.31;4311768;33;33434;-80
2024/01/10 01:34:13;;;;;;;;;;;;;;;-1.82;50.49;101216.06;4316093;33;33902;-81
2024/01/10 01:36:44;;;;;;;;;;;;;;;-1.79;49.81;101213.69;4310725;33;34947;-80
2024/01/10 01:39:15;;;;;;;;;;;;;;;-1.74;49.27;101208.12;4311265;33;34150;-82
2024/01/10 01:41:45;;;;;;;;;;;;;;;-1.73;48.64;101209.87;4311404;33;33734;-80
2024/01/10 01:44:15;;;;;;;;;;;;;;;-1.67;48.70;101209.34;4310432;33;34654;-81
2024/01/10 01:46:46;;;;;;;;;;;;;;;-1.72;48.30;101203.13;4316157;33;33777;-83
2024/01/10 01:49:16;;;;;;;;;;;;;;;-1.76;47.68;101209.69;4313599;33;34048;-82
2024/01/10 01:51:46;;;;;;;;;;;;;;;-1.77;47.46;101213.00;4327162;33;33512;-80
2024/01/10 01:54:17;;;;;;;;;;;;;;;-1.90;47.56;101204.56;4319116;33;34296;-81
2024/01/10 02:00:11;;;;;;;;;;;;;;;-1.71;47.13;101202.34;4316026;33;33939;-80
2024/01/10 02:02:40;;;;;;;;;;;;;;;-1.89;47.27;101199.53;4326405;33;33286;-82
2024/01/10 02:05:09;;;;;;;;;;;;;;;-2.09;47.51;101193.25;4325121;33;33762;-81
2024/01/10 02:07:37;;;;;;;;;;;;;;;-1.89;47.26;101198.69;4325313;33;33472;-83
2024/01/10 02:10:08;;;;;;;;;;;;;;;-2.06;47.37;101188.34;4321143;33;34247;-81
2024/01/10 02:12:36;;;;;;;;;;;;;;;-2.07;47.50;101196.78;4323383;33;31166;-81
2024/01/10 02:15:05;;;;;;;;;;;;;;;-1.90;46.97;101194.38;4314576;33;34545;-81
2024/01/10 02:17:33;;;;;;;;;;;;;;;-1.91;46.93;101196.03;4313055;33;33654;-82
2024/01/10 02:20:11;;;;;;;;;;;;;;;-1.90;46.87;101200.34;4327362;33;34454;-80
2024/01/10 02:22:40;;;;;;;;;;;;;;;-2.05;46.80;101195.19;4330473;33;32917;-80
2024/01/10 02:25:10;;;;;;;;;;;;;;;-1.96;46.65;101185.59;4327337;33;34543;-82
2024/01/10 02:27:38;;;;;;;;;;;;;;;-1.88;46.37;101188.59;4325404;33;34824;-82
2024/01/10 02:30:08;;;;;;;;;;;;;;;-1.98;46.37;101193.88;4325424;33;34722;-80
2024/01/10 02:32:36;;;;;;;;;;;;;;;-2.02;46.50;101177.59;4325216;33;33173;-80
2024/01/10 02:35:05;;;;;;;;;;;;;;;-1.96;46.52;101179.59;4330049;33;33758;-80
2024/01/10 02:37:34;;;;;;;;;;;;;;;-2.08;46.70;101183.94;4325300;33;33288;-80
2024/01/10 02:40:03;;;;;;;;;;;;;;;-1.96;46.40;101187.25;4312915;33;34189;-81
2024/01/10 02:42:33;;;;;;;;;;;;;;;-2.02;46.19;101186.88;4317374;33;34520;-81
2024/01/10 02:45:01;;;;;;;;;;;;;;;-2.11;46.51;101186.31;4316676;33;34399;-81
2024/01/10 02:47:30;;;;;;;;;;;;;;;-2.12;46.81;101187.09;4310422;33;33400;-80
2024/01/10 02:49:58;;;;;;;;;;;;;;;-2.04;46.70;101188.44;4310937;33;35207;-83
2024/01/10 02:52:27;;;;;;;;;;;;;;;-2.34;47.37;101183.22;4314043;33;33441;-81
2024/01/10 02:54:55;;;;;;;;;;;;;;;-2.40;47.59;101186.25;4321068;33;33780;-83
2024/01/10 02:57:24;;;;;;;;;;;;;;;-2.04;46.35;101186.78;4318431;33;34053;-82
2024/01/10 02:59:54;;;;;;;;;;;;;;;-2.08;46.10;101178.88;4323025;33;35164;-82
2024/01/10 03:02:23;;;;;;;;;;;;;;;-1.98;46.04;101187.16;4312973;33;33538;-82
2024/01/10 03:04:52;;;;;;;;;;;;;;;-2.10;46.88;101181.34;4323785;33;33534;-82
2024/01/10 03:07:20;;;;;;;;;;;;;;;-2.22;47.10;101186.53;4323048;33;33426;-80
2024/01/10 03:09:49;;;;;;;;;;;;;;;-2.17;47.35;101185.16;4316008;33;33917;-80
2024/01/10 03:12:17;;;;;;;;;;;;;;;-2.20;47.17;101178.97;4316420;33;31689;-80
2024/01/10 03:14:46;;;;;;;;;;;;;;;-2.20;47.19;101176.44;4317651;33;34070;-80
2024/01/10 03:17:15;;;;;;;;;;;;;;;-2.17;46.90;101191.91;4318500;33;33910;-82
2024/01/10 03:19:44;;;;;;;;;;;;;;;-2.25;46.71;101191.41;4312081;33;33875;-80
2024/01/10 03:22:13;;;;;;;;;;;;;;;-2.17;46.11;101190.25;4312989;33;33436;-80
2024/01/10 03:24:41;;;;;;;;;;;;;;;-2.39;46.40;101192.22;4316747;33;33682;-80
2024/01/10 03:27:09;;;;;;;;;;;;;;;-2.13;45.63;101190.41;4311181;33;33856;-80
2024/01/10 03:29:38;;;;;;;;;;;;;;;-2.08;45.24;101191.56;4318297;33;34176;-82
2024/01/10 03:32:06;;;;;;;;;;;;;;;-2.09;45.59;101195.78;4313113;33;33260;-82
2024/01/10 03:34:36;;;;;;;;;;;;;;;-2.26;45.90;101191.31;4316220;33;34662;-80
2024/01/10 03:37:05;;;;;;;;;;;;;;;-2.13;45.55;101188.75;4315041;33;36211;-81
2024/01/10 03:39:34;;;;;;;;;;;;;;;-2.22;46.05;101191.62;4319026;33;34985;-80
2024/01/10 03:42:02;;;;;;;;;;;;;;;-2.15;46.01;101188.66;4318795;33;33916;-80
2024/01/10 03:44:31;;;;;;;;;;;;;;;-2.22;46.19;101178.91;4322557;33;33803;-81
2024/01/10 03:46:59;;;;;;;;;;;;;;;-2.06;45.75;101178.16;4316546;33;34959;-82
2024/01/10 03:49:27;;;;;;;;;;;;;;;-2.12;46.07;101176.94;4318620;33;33968;-82
2024/01/10 03:51:57;;;;;;;;;;;;;;;-2.22;46.45;101181.44;4312141;33;33120;-80
2024/01/10 03:54:26;;;;;;;;;;;;;;;-2.32;46.84;101181.66;4325171;33;34200;-83
2024/01/10 03:56:54;;;;;;;;;;;;;;;-2.34;47.27;101184.88;4314208;33;33746;-82
2024/01/10 03:59:23;;;;;;;;;;;;;;;-2.30;47.20;101181.75;4314682;33;35060;-79
2024/01/10 04:01:51;;;;;;;;;;;;;;;-2.21;47.64;101192.50;4319592;33;33287;-82
2024/01/10 04:04:20;;;;;;;;;;;;;;;-2.38;47.86;101183.81;4317279;33;33916;-80
2024/01/10 04:06:48;;;;;;;;;;;;;;;-2.20;47.03;101191.69;4318904;33;34646;-80
2024/01/10 04:09:18;;;;;;;;;;;;;;;-2.06;46.17;101188.34;4311430;33;33926;-82
2024/01/10 04:11:46;;;;;;;;;;;;;;;-2.18;45.94;101185.03;4328029;33;32826;-81
2024/01/10 04:14:15;;;;;;;;;;;;;;;-2.36;46.19;101182.25;4326332;33;34566;-80
2024/01/10 04:16:43;;;;;;;;;;;;;;;-2.40;45.98;101180.28;4325772;33;33393;-80
2024/01/10 04:19:12;;;;;;;;;;;;;;;-2.13;45.41;101181.12;4325552;33;34037;-80
2024/01/10 04:21:41;;;;;;;;;;;;;;;-2.46;46.03;101185.00;4331236;33;33209;-81
2024/01/10 04:24:10;;;;;;;;;;;;;;;-2.25;45.66;101191.41;4330057;33;33881;-81
2024/01/10 04:26:39;;;;;;;;;;;;;;;-2.35;45.72;101194.16;4325895;33;33486;-80
2024/01/10 04:29:08;;;;;;;;;;;;;;;-2.37;45.77;101196.63;4325980;33;34509;-81
2024/01/10 04:31:37;;;;;;;;;;;;;;;-2.30;45.27;101192.78;4326160;33;33793;-83
2024/01/10 04:34:05;;;;;;;;;;;;;;;-2.42;45.78;101197.97;4331103;33;33574;-80
2024/01/10 04:36:34;;;;;;;;;;;;;;;-2.48;46.47;101191.66;4326033;33;35208;-81
2024/01/10 04:39:02;;;;;;;;;;;;;;;-2.49;46.63;101200.94;4325852;33;34714;-81
2024/01/10 04:41:31;;;;;;;;;;;;;;;-2.46;47.40;101190.97;4325751;33;32900;-82
2024/01/10 04:44:01;;;;;;;;;;;;;;;-2.75;48.04;101198.38;4330494;33;34801;-80
2024/01/10 04:46:29;;;;;;;;;;;;;;;-2.83;48.28;101192.78;4311254;33;34901;-80
2024/01/10 04:48:58;;;;;;;;;;;;;;;-3.00;48.98;101201.84;4311071;33;34837;-81
2024/01/10 04:51:26;;;;;;;;;;;;;;;-2.96;49.03;101201.28;4311267;33;33131;-80
2024/01/10 04:53:55;;;;;;;;;;;;;;;-2.63;47.96;101201.72;4317230;33;35513;-82
2024/01/10 04:56:24;;;;;;;;;;;;;;;-2.80;48.45;101204.06;4330730;33;33813;-81
2024/01/10 04:58:52;;;;;;;;;;;;;;;-2.65;48.46;101206.69;4323194;33;34513;-82
2024/01/10 05:01:23;;;;;;;;;;;;;;;-2.86;48.75;101210.37;4311711;33;33620;-82
2024/01/10 05:03:51;;;;;;;;;;;;;;;-2.87;48.78;101208.62;4310697;33;34053;-80
2024/01/10 05:06:19;;;;;;;;;;;;;;;-2.67;48.68;101199.75;4324969;33;34553;-80
2024/01/10 05:08:47;;;;;;;;;;;;;;;-2.80;49.22;101210.78;4320096;33;34796;-81
2024/01/10 05:11:16;;;;;;;;;;;;;;;-2.86;49.49;101205.31;4325541;33;32624;-80
2024/01/10 05:13:45;;;;;;;;;;;;;;;-2.84;49.08;101202.09;4310801;33;34271;-81
2024/01/10 05:16:13;;;;;;;;;;;;;;;-3.19;49.52;101212.44;4315916;33;34771;-80
2024/01/10 05:18:46;;;;;;;;;;;;;;;-3.06;49.40;101209.97;4311398;33;34029;-79
2024/01/10 05:21:14;;;;;;;;;;;;;;;-3.13;49.42;101212.87;4310502;33;33524;-82
2024/01/10 05:23:43;;;;;;;;;;;;;;;-3.17;50.06;101217.66;4312197;33;33882;-82
2024/01/10 05:26:11;;;;;;;;;;;;;;;-3.13;50.56;101222.16;4325440;33;33707;-80
2024/01/10 05:28:40;;;;;;;;;;;;;;;-2.98;50.62;101219.75;4330703;33;34770;-82
2024/01/10 05:31:08;;;;;;;;;;;;;;;-2.95;50.99;101215.72;4322452;33;34105;-81
2024/01/10 05:33:37;;;;;;;;;;;;;;;-3.12;51.18;101218.81;4318384;33;33872;-79
2024/01/10 05:36:07;;;;;;;;;;;;;;;-3.29;51.72;101216.03;4325642;33;33589;-80
2024/01/10 05:38:36;;;;;;;;;;;;;;;-3.04;51.09;101217.69;4316651;33;33964;-81
2024/01/10 05:41:05;;;;;;;;;;;;;;;-2.98;50.70;101207.91;4310474;33;34385;-82
2024/01/10 05:43:33;;;;;;;;;;;;;;;-3.17;50.89;101210.91;4311628;33;33115;-80
2024/01/10 05:46:04;;;;;;;;;;;;;;;-3.19;50.66;101206.50;4323247;33;33826;-81
2024/01/10 05:48:33;;;;;;;;;;;;;;;-2.87;49.61;101213.72;4326149;33;33362;-79
2024/01/10 05:51:01;;;;;;;;;;;;;;;-2.86;49.44;101207.84;4316059;33;33669;-81
2024/01/10 05:53:32;;;;;;;;;;;;;;;-3.09;50.16;101203.81;4313929;33;34286;-81
2024/01/10 05:56:01;;;;;;;;;;;;;;;-2.88;49.84;101206.84;4315399;33;33952;-80
2024/01/10 05:58:30;;;;;;;;;;;;;;;-2.81;49.47;101202.28;4317064;33;34520;-80
2024/01/10 06:00:59;;;;;;;;;;;;;;;-2.84;49.59;101211.38;4319950;33;33576;-81
2024/01/10 06:03:28;;;;;;;;;;;;;;;-2.91;49.76;101212.63;4312965;33;33754;-80
2024/01/10 06:06:03;;;;;;;;;;;;;;;-2.83;48.74;101221.62;4311154;33;33623;-82
2024/01/10 06:08:33;;;;;;;;;;;;;;;-2.75;47.99;101217.03;4315484;33;34965;-82
2024/01/10 06:11:03;;;;;;;;;;;;;;;-2.75;47.80;101214.50;4320738;33;33337;-81
2024/01/10 06:13:32;;;;;;;;;;;;;;;-2.86;48.14;101213.78;4315549;33;34945;-81
2024/01/10 06:16:16;;;;;;;;;;;;;;;-3.02;48.51;101222.09;4316587;33;33867;-82
2024/01/10 06:18:45;;;;;;;;;;;;;;;-3.15;48.52;101226.25;4319326;33;35263;-80
2024/01/10 06:21:14;;;;;;;;;;;;;;;-3.22;48.50;101224.94;4314942;33;33463;-81
2024/01/10 06:23:43;;;;;;;;;;;;;;;-3.04;48.45;101223.63;4319903;33;33836;-80
2024/01/10 06:26:12;;;;;;;;;;;;;;;-2.96;48.34;101229.22;4318226;33;33417;-80
2024/01/10 06:28:41;;;;;;;;;;;;;;;-2.94;48.46;101234.41;4311933;33;34098;-81
2024/01/10 06:31:09;;;;;;;;;;;;;;;-3.03;48.84;101230.47;4321345;33;33434;-79
2024/01/10 06:33:40;;;;;;;;;;;;;;;-3.13;48.90;101233.19;4308560;33;34435;-79
2024/01/10 06:36:09;;;;;;;;;;;;;;;-3.32;48.86;101241.22;4318351;33;33264;-80
2024/01/10 06:38:38;;;;;;;;;;;;;;;-3.18;48.66;101226.91;4320682;33;33931;-81
2024/01/10 06:41:09;;;;;;;;;;;;;;;-2.94;48.28;101235.28;4316270;33;33347;-81
2024/01/10 06:43:38;;;;;;;;;;;;;;;-3.03;49.07;101232.12;4315690;33;34586;-82
2024/01/10 06:46:07;;;;;;;;;;;;;;;-3.10;49.15;101242.66;4325510;33;33877;-80
2024/01/10 06:48:35;;;;;;;;;;;;;;;-2.99;48.61;101244.25;4316796;33;34666;-79
2024/01/10 06:51:10;;;;;;;;;;;;;;;-3.11;48.99;101249.41;4317814;33;33868;-80
2024/01/10 06:53:38;;;;;;;;;;;;;;;-2.85;48.34;101250.22;4316657;33;33617;-79
2024/01/10 06:56:09;;;;;;;;;;;;;;;-2.86;48.89;101248.47;4323394;33;33922;-79
2024/01/10 06:58:40;;;;;;;;;;;;;;;-3.14;49.95;101243.22;4328015;33;35552;-81
2024/01/10 07:01:13;;;;;;;;;;;;;;;-2.91;50.06;101239.69;4324547;33;34057;-79
2024/01/10 07:03:42;;;;;;;;;;;;;;;-2.66;49.68;101255.75;4324279;33;33999;-80
2024/01/10 07:06:14;;;;;;;;;;;;;;;-2.91;50.27;101257.44;4323491;33;34438;-79
2024/01/10 07:08:44;;;;;;;;;;;;;;;-2.85;50.15;101261.28;4328453;33;34079;-80
2024/01/10 07:11:13;;;;;;;;;;;;;;;-2.96;50.45;101263.91;4322266;33;33912;-79
2024/01/10 07:13:43;;;;;;;;;;;;;;;-2.72;49.23;101265.50;4322912;33;34799;-80
2024/01/10 07:16:14;;;;;;;;;;;;;;;-2.88;49.38;101266.12;4323344;33;33266;-79
2024/01/10 07:18:43;;;;;;;;;;;;;;;-2.47;47.46;101269.62;4316479;33;34134;-82
2024/01/10 07:21:12;;;;;;;;;;;;;;;-2.73;47.13;101265.38;4326802;33;33672;-81
2024/01/10 07:23:42;;;;;;;;;;;;;;;-2.85;48.12;101262.91;4321728;33;34954;-81
2024/01/10 07:26:13;;;;;;;;;;;;;;;-2.93;48.36;101269.16;4309718;33;35049;-81
2024/01/10 07:28:43;;;;;;;;;;;;;;;-2.48;47.52;101267.87;4309696;33;35089;-81
2024/01/10 07:31:12;;;;;;;;;;;;;;;-2.55;47.99;101263.19;4320490;33;33728;-80
2024/01/10 07:33:41;;;;;;;;;;;;;;;-2.41;47.77;101257.31;4316761;33;33966;-80
2024/01/10 07:36:09;;;;;;;;;;;;;;;-2.30;47.86;101256.31;4313797;33;34652;-81
2024/01/10 07:38:38;;;;;;;;;;;;;;;-2.39;48.14;101258.31;4316231;33;34161;-80
2024/01/10 07:41:06;;;;;;;;;;;;;;;-2.25;48.38;101257.50;4319777;33;33153;-80
2024/01/10 07:43:35;;;;;;;;;;;;;;;-2.43;48.73;101252.12;4322249;33;33870;-80
2024/01/10 07:46:05;;;;;;;;;;;;;;;-2.12;47.79;101254.09;4318061;33;33566;-81
2024/01/10 07:48:35;;;;;;;;;;;;;;;-2.34;48.30;101251.84;4319348;33;33584;-81
2024/01/10 07:51:04;;;;;;;;;;;;;;;-2.30;48.09;101261.41;4311619;33;33088;-80
2024/01/10 07:53:32;;;;;;;;;;;;;;;-2.33;48.06;101248.50;4321797;33;34445;-81
2024/01/10 07:56:01;;;;;;;;;;;;;;;-2.31;48.21;101256.25;4324367;33;34659;-81
2024/01/10 07:58:30;;;;;;;;;;;;;;;-2.08;48.13;101261.09;4314180;33;34902;-80
2024/01/10 08:00:58;;;;;;;;;;;;;;;-2.26;48.13;101265.91;4314826;33;33585;-79
2024/01/10 08:03:28;;;;;;;;;;;;;;;-2.00;47.91;101267.56;4330104;33;33698;-80
2024/01/10 08:05:57;;;;;;;;;;;;;;;-1.79;47.00;101269.66;4325910;33;34712;-81
2024/01/10 08:08:25;;;;;;;;;;;;;;;-1.73;45.79;101263.31;4326030;33;34333;-79
2024/01/10 08:10:54;;;;;;;;;;;;;;;-1.66;45.17;101261.16;4326896;33;33213;-80
2024/01/10 08:13:22;;;;;;;;;;;;;;;-1.73;45.51;101263.31;4326220;33;34092;-79
2024/01/10 08:15:51;;;;;;;;;;;;;;;-1.62;45.08;101269.06;4331154;33;34970;-81
2024/01/10 08:18:19;;;;;;;;;;;;;;;-1.49;45.14;101263.03;4323282;33;33706;-79
2024/01/10 08:20:49;;;;;;;;;;;;;;;-1.50;45.65;101276.53;4317890;33;33279;-82
2024/01/10 08:23:18;;;;;;;;;;;;;;;-1.21;44.02;101269.78;4318716;33;34451;-80
2024/01/10 08:25:46;;;;;;;;;;;;;;;-1.09;44.43;101273.97;4322834;33;32020;-80
2024/01/10 08:28:15;;;;;;;;;;;;;;;-0.93;43.60;101275.72;4318745;33;34262;-81
2024/01/10 08:30:45;;;;;;;;;;;;;;;-1.09;45.29;101267.97;4322160;33;33948;-79
2024/01/10 08:33:14;;;;;;;;;;;;;;;-0.92;45.59;101268.94;4325881;33;34528;-81
2024/01/10 08:35:42;;;;;;;;;;;;;;;-1.04;46.52;101274.19;4331002;33;33655;-81
2024/01/10 08:38:12;;;;;;;;;;;;;;;-0.90;46.36;101278.44;4329734;33;35524;-81
2024/01/10 08:40:41;;;;;;;;;;;;;;;-0.84;45.56;101287.25;4324884;33;31195;-81
2024/01/10 08:43:10;;;;;;;;;;;;;;;-0.97;45.31;101273.78;4323935;33;33698;-82
2024/01/10 08:45:38;;;;;;;;;;;;;;;-0.87;45.28;101278.63;4326136;33;33703;-81
2024/01/10 08:48:07;;;;;;;;;;;;;;;-0.79;45.65;101288.41;4330787;33;33874;-80
2024/01/10 08:50:38;;;;;;;;;;;;;;;-0.78;45.36;101285.91;4324900;33;33728;-80
2024/01/10 08:53:06;;;;;;;;;;;;;;;-0.67;45.28;101289.97;4324459;33;34178;-81
2024/01/10 08:55:37;;;;;;;;;;;;;;;-0.48;45.16;101280.84;4315344;33;34557;-81
2024/01/10 08:58:05;;;;;;;;;;;;;;;-0.58;45.48;101283.63;4323417;33;33474;-80
2024/01/10 09:00:34;;;;;;;;;;;;;;;-0.41;44.42;101282.94;4316474;33;33654;-82
2024/01/10 09:03:03;;;;;;;;;;;;;;;-0.32;44.01;101285.13;4317739;33;34239;-81
2024/01/10 09:05:32;;;;;;;;;;;;;;;-0.07;41.10;101280.59;4312290;33;33725;-82
2024/01/10 09:08:04;;;;;;;;;;;;;;;-0.06;41.16;101282.34;4310380;33;33989;-81
2024/01/10 09:10:33;;;;;;;;;;;;;;;0.05;40.53;101282.97;4317251;33;33282;-81
2024/01/10 09:13:03;;;;;;;;;;;;;;;0.28;38.38;101284.19;4319674;33;33763;-80
2024/01/10 09:15:31;;;;;;;;;;;;;;;0.42;38.60;101273.03;4325209;33;34053;-80
2024/01/10 09:18:00;;;;;;;;;;;;;;;0.35;38.50;101262.44;4325468;33;34136;-82
2024/01/10 09:20:29;;;;;;;;;;;;;;;0.31;39.22;101261.38;4330624;33;33381;-80
2024/01/10 09:22:59;;;;;;;;;;;;;;;0.23;39.07;101265.19;4321203;33;34673;-83
2024/01/10 09:25:29;;;;;;;;;;;;;;;0.56;37.50;101265.25;4320307;33;33572;-80
2024/01/10 09:27:58;;;;;;;;;;;;;;;0.69;37.73;101261.66;4325504;33;33943;-81
2024/01/10 09:30:28;;;;;;;;;;;;;;;0.64;38.67;101252.06;4324994;33;34228;-82
2024/01/10 09:32:57;;;;;;;;;;;;;;;0.45;39.13;101258.69;4330710;33;33146;-81
2024/01/10 09:35:26;;;;;;;;;;;;;;;0.75;38.02;101250.06;4318884;33;34643;-83
2024/01/10 09:37:54;;;;;;;;;;;;;;;0.94;37.15;101248.44;4316670;33;34081;-82
2024/01/10 09:40:27;;;;;;;;;;;;;;;0.67;37.67;101251.34;4317554;33;33263;-81
2024/01/10 09:42:56;;;;;;;;;;;;;;;0.70;38.34;101253.16;4323371;33;33774;-82
2024/01/10 09:45:24;;;;;;;;;;;;;;;0.81;39.35;101250.37;4315443;33;35808;-81
2024/01/10 09:47:55;;;;;;;;;;;;;;;0.64;38.19;101256.28;4315905;33;34656;-83
2024/01/10 09:50:25;;;;;;;;;;;;;;;1.02;37.13;101252.28;4317010;33;33743;-81
2024/01/10 09:52:54;;;;;;;;;;;;;;;0.95;36.57;101245.09;4319344;33;33555;-82
2024/01/10 09:55:23;;;;;;;;;;;;;;;1.19;36.17;101248.00;4321034;33;32894;-81
2024/01/10 09:57:54;;;;;;;;;;;;;;;1.28;35.59;101238.22;4317436;33;33998;-81
2024/01/10 10:00:23;;;;;;;;;;;;;;;1.59;35.06;101240.56;4316624;33;33636;-81
2024/01/10 10:02:53;;;;;;;;;;;;;;;1.26;35.85;101233.03;4315200;33;34079;-80
2024/01/10 10:05:23;;;;;;;;;;;;;;;1.22;36.25;101230.25;4319764;33;33527;-82
2024/01/10 10:07:53;;;;;;;;;;;;;;;1.33;35.70;101224.00;4323294;33;34029;-81
2024/01/10 10:10:22;;;;;;;;;;;;;;;1.47;36.95;101222.09;4323242;33;34662;-81
2024/01/10 10:12:52;;;;;;;;;;;;;;;1.29;36.41;101216.97;4325097;33;34410;-84
2024/01/10 10:15:22;;;;;;;;;;;;;;;1.42;36.58;101223.56;4329298;33;34553;-82
2024/01/10 10:17:53;;;;;;;;;;;;;;;1.27;36.45;101219.44;4321922;33;32663;-82
2024/01/10 10:20:24;;;;;;;;;;;;;;;1.42;37.11;101221.00;4313930;33;33419;-81
2024/01/10 10:23:00;;;;;;;;;;;;;;;1.45;37.14;101221.13;4319541;33;34144;-80
2024/01/10 10:25:30;;;;;;;;;;;;;;;1.70;36.04;101218.09;4323836;33;34896;-81
2024/01/10 10:27:59;;;;;;;;;;;;;;;1.62;36.27;101212.63;4320412;33;33716;-79
2024/01/10 10:30:28;;;;;;;;;;;;;;;1.66;35.86;101208.50;4316542;33;33168;-80
2024/01/10 10:32:56;;;;;;;;;;;;;;;1.51;36.42;101207.78;4323804;33;33512;-79
2024/01/10 10:35:26;;;;;;;;;;;;;;;1.66;36.44;101204.25;4321474;33;34544;-81
2024/01/10 10:38:09;;;;;;;;;;;;;;;1.68;36.58;101194.97;4318600;33;34622;-79
2024/01/10 10:40:38;;;;;;;;;;;;;;;1.99;36.28;101192.97;4329045;33;33499;-80
2024/01/10 10:43:07;;;;;;;;;;;;;;;1.99;36.59;101193.84;4323660;33;34180;-79
2024/01/10 10:45:35;;;;;;;;;;;;;;;2.19;37.07;101181.06;4313189;33;34866;-80
2024/01/10 10:48:04;;;;;;;;;;;;;;;2.35;36.60;101189.50;4314659;33;33966;-82
2024/01/10 10:50:36;;;;;;;;;;;;;;;2.34;36.49;101184.28;4328627;33;34007;-79
2024/01/10 10:53:05;;;;;;;;;;;;;;;2.50;36.62;101180.72;4317505;33;33557;-79
2024/01/10 10:55:34;;;;;;;;;;;;;;;2.40;37.12;101187.13;4314229;33;34181;-79
2024/01/10 10:58:04;;;;;;;;;;;;;;;2.34;37.28;101184.28;4314148;33;34670;-81
2024/01/10 11:00:39;;;;;;;;;;;;;;;2.21;36.98;101175.19;4312805;33;33895;-81
2024/01/10 11:03:08;;;;;;;;;;;;;;;2.41;36.96;101177.75;4320257;33;34182;-79
2024/01/10 11:05:38;;;;;;;;;;;;;;;2.59;35.74;101173.44;4315885;33;35162;-79
2024/01/10 11:08:07;;;;;;;;;;;;;;;2.56;36.47;101163.94;4314745;33;33379;-79
2024/01/10 11:10:35;;;;;;;;;;;;;;;2.60;36.82;101169.19;4316542;33;33292;-79
2024/01/10 11:13:08;;;;;;;;;;;;;;;2.42;37.33;101159.91;4321722;33;33922;-79
2024/01/10 11:15:43;;;;;;;;;;;;;;;2.54;37.31;101160.44;4323655;33;33830;-82
2024/01/10 11:18:15;;;;;;;;;;;;;;;2.66;36.76;101149.84;4320923;33;35034;-80
2024/01/10 11:20:49;;;;;;;;;;;;;;;2.33;37.78;101151.81;4318075;33;33656;-80
2024/01/10 11:23:23;;;;;;;;;;;;;;;2.40;37.30;101146.16;4312071;33;34960;-79
2024/01/10 11:25:52;;;;;;;;;;;;;;;2.60;37.24;101144.44;4315845;33;35048;-81
2024/01/10 11:28:20;;;;;;;;;;;;;;;2.78;36.56;101141.78;4312484;33;33978;-79
2024/01/10 11:30:51;;;;;;;;;;;;;;;2.63;36.93;101141.13;4317117;33;33766;-81
2024/01/10 11:33:21;;;;;;;;;;;;;;;2.73;37.03;101139.03;4320644;33;33640;-83
2024/01/10 11:36:10;;;;;;;;;;;;;;;2.99;36.98;101134.09;4318186;33;33588;-81
2024/01/10 11:38:40;;;;;;;;;;;;;;;3.02;37.13;101136.81;4322285;33;35176;-81
2024/01/10 11:41:09;;;;;;;;;;;;;;;3.01;37.40;101136.72;4310301;33;34351;-80
2024/01/10 11:43:38;;;;;;;;;;;;;;;3.10;37.12;101126.84;4314273;33;35224;-82
2024/01/10 11:46:09;;;;;;;;;;;;;;;2.97;37.34;101131.47;4313508;33;34262;-81
2024/01/10 11:48:38;;;;;;;;;;;;;;;3.00;37.64;101125.59;4316855;33;34159;-82
2024/01/10 11:51:07;;;;;;;;;;;;;;;3.15;37.30;101135.59;4323997;33;33164;-81
2024/01/10 11:53:40;;;;;;;;;;;;;;;3.23;37.33;101130.75;4321758;33;34196;-80
2024/01/10 11:56:14;;;;;;;;;;;;;;;3.17;38.16;101129.72;4318131;33;33353;-83
2024/01/10 11:58:53;;;;;;;;;;;;;;;3.33;37.82;101135.44;4317680;33;34016;-80
2024/01/10 12:01:22;;;;;;;;;;;;;;;3.26;37.70;101125.75;4326415;33;34016;-80
2024/01/10 12:03:52;;;;;;;;;;;;;;;3.34;38.26;101122.69;4323128;33;34603;-80
2024/01/10 12:06:41;;;;;;;;;;;;;;;3.32;38.11;101123.44;4313890;33;33801;-80
2024/01/10 12:09:13;;;;;;;;;;;;;;;3.36;37.98;101115.94;4314205;33;34762;-83
2024/01/10 12:11:42;;;;;;;;;;;;;;;3.47;37.65;101110.31;4324687;33;33290;-82
2024/01/10 12:14:11;;;;;;;;;;;;;;;3.50;38.58;101111.31;4321455;33;33782;-80
2024/01/10 12:16:40;;;;;;;;;;;;;;;3.47;38.44;101108.63;4312351;33;34736;-83
2024/01/10 12:19:08;;;;;;;;;;;;;;;3.53;38.77;101108.00;4310696;33;34014;-81
2024/01/10 12:21:37;;;;;;;;;;;;;;;3.38;39.49;101109.16;4309485;33;33919;-81
2024/01/10 12:24:06;;;;;;;;;;;;;;;3.45;39.08;101100.00;4310947;33;34435;-83
2024/01/10 12:26:36;;;;;;;;;;;;;;;3.34;38.45;101107.28;4314570;33;34230;-84
2024/01/10 12:29:06;;;;;;;;;;;;;;;3.49;38.75;101106.12;4311095;33;33527;-81
2024/01/10 12:31:35;;;;;;;;;;;;;;;3.47;39.46;101098.37;4310819;33;33261;-81
2024/01/10 12:34:03;;;;;;;;;;;;;;;3.70;38.32;101096.69;4314536;33;34806;-81
2024/01/10 12:36:35;;;;;;;;;;;;;;;3.53;38.77;101100.31;4320319;33;33650;-81
2024/01/10 12:39:04;;;;;;;;;;;;;;;3.46;39.39;101108.59;4325585;33;34162;-81
2024/01/10 12:41:32;;;;;;;;;;;;;;;3.49;39.81;101106.12;4325704;33;33258;-81
2024/01/10 12:44:03;;;;;;;;;;;;;;;3.54;40.04;101104.63;4324808;33;33952;-81
2024/01/10 12:46:32;;;;;;;;;;;;;;;3.74;39.24;101100.22;4310542;33;33197;-83
2024/01/10 12:49:01;;;;;;;;;;;;;;;3.37;40.15;101109.09;4320570;33;34892;-83
2024/01/10 12:51:31;;;;;;;;;;;;;;;3.52;38.89;101103.69;4325294;33;33436;-81
2024/01/10 12:53:59;;;;;;;;;;;;;;;3.47;38.89;101105.19;4319597;33;34845;-83
2024/01/10 12:56:28;;;;;;;;;;;;;;;3.56;39.40;101098.72;4321020;33;34346;-81